sensor_id;sensor_type;location;lat;lon;timestamp;temperature;humidity
12039;DHT22;6080;48.818;9.526;2023-05-16T03:02:00;8.90;99.90
12039;DHT22;6080;48.818;9.526;2023-05-16T03:04:26;8.90;99.90
12039;DHT22;6080;48.818;9.526;2023-05-16T03:06:52;8.90;99.90
12039;DHT22;6080;48.818;9.526;2023-05-16T03:09:17;9.00;99.90
12039;DHT22;6080;48.818;9.526;2023-05-16T03:11:44;9.00;99.90
12039;DHT22;6080;48.818;9.526;2023-05-16T03:14:10;9.10;99.90
12039;DHT22;6080;48.818;9.526;2023-05-16T03:16:37;9.10;99.90
12039;DHT22;6080;48.818;9.526;2023-05-16T03:19:04;9.20;99.90
12039;DHT22;6080;48.818;9.526;2023-05-16T03:21:30;9.20;99.90
12039;DHT22;6080;48.818;9.526;2023-05-16T03:23:56;9.30;99.90
12039;DHT22;6080;48.818;9.526;2023-05-16T03:26:23;9.20;99.90
12039;DHT22;6080;48.818;9.526;2023-05-16T03:28:49;9.30;99.90
12039;DHT22;6080;48.818;9.526;2023-05-16T03:31:16;9.30;99.90
12039;DHT22;6080;48.818;9.526;2023-05-16T03:33:42;9.40;99.90
12039;DHT22;6080;48.818;9.526;2023-05-16T03:36:08;9.50;99.90
12039;DHT22;6080;48.818;9.526;2023-05-16T03:38:34;9.60;99.90
12039;DHT22;6080;48.818;9.526;2023-05-16T03:41:00;9.60;99.90
12039;DHT22;6080;48.818;9.526;2023-05-16T03:43:26;9.70;99.90
12039;DHT22;6080;48.818;9.526;2023-05-16T03:45:52;9.80;99.90
12039;DHT22;6080;48.818;9.526;2023-05-16T03:48:18;9.90;99.90
12039;DHT22;6080;48.818;9.526;2023-05-16T03:50:44;9.90;99.90
12039;DHT22;6080;48.818;9.526;2023-05-16T03:53:10;9.90;99.90
12039;DHT22;6080;48.818;9.526;2023-05-16T03:55:36;9.90;99.90
12039;DHT22;6080;48.818;9.526;2023-05-16T03:58:02;9.90;99.90
12039;DHT22;6080;48.818;9.526;2023-05-16T04:00:28;10.00;99.90
12039;DHT22;6080;48.818;9.526;2023-05-16T04:02:54;10.00;99.90
12039;DHT22;6080;48.818;9.526;2023-05-16T04:05:20;10.00;99.90
12039;DHT22;6080;48.818;9.526;2023-05-16T04:07:46;10.00;99.90
12039;DHT22;6080;48.818;9.526;2023-05-16T04:10:11;10.00;99.90
12039;DHT22;6080;48.818;9.526;2023-05-16T04:12:37;10.00;99.90
12039;DHT22;6080;48.818;9.526;2023-05-16T04:15:04;9.90;99.90
12039;DHT22;6080;48.818;9.526;2023-05-16T04:17:30;9.90;99.90
12039;DHT22;6080;48.818;9.526;2023-05-16T04:19:56;9.90;99.90
12039;DHT22;6080;48.818;9.526;2023-05-16T04:22:22;9.90;99.90
12039;DHT22;6080;48.818;9.526;2023-05-16T04:24:48;10.00;99.90
12039;DHT22;6080;48.818;9.526;2023-05-16T04:27:13;10.00;99.90
12039;DHT22;6080;48.818;9.526;2023-05-16T04:29:39;10.10;99.90
12039;DHT22;6080;48.818;9.526;2023-05-16T04:32:06;10.10;99.90
12039;DHT22;6080;48.818;9.526;2023-05-16T04:34:32;10.30;99.90
12039;DHT22;6080;48.818;9.526;2023-05-16T04:36:58;10.30;99.90
12039;DHT22;6080;48.818;9.526;2023-05-16T04:39:24;10.40;99.90
12039;DHT22;6080;48.818;9.526;2023-05-16T04:41:50;10.50;99.90
12039;DHT22;6080;48.818;9.526;2023-05-16T04:44:16;10.70;99.90
12039;DHT22;6080;48.818;9.526;2023-05-16T04:46:42;10.70;99.90
12039;DHT22;6080;48.818;9.526;2023-05-16T04:49:08;10.90;99.90
12039;DHT22;6080;48.818;9.526;2023-05-16T04:51:35;11.00;99.90
12039;DHT22;6080;48.818;9.526;2023-05-16T04:54:01;11.10;99.90
12039;DHT22;6080;48.818;9.526;2023-05-16T04:56:27;11.10;99.90
12039;DHT22;6080;48.818;9.526;2023-05-16T04:58:52;11.10;99.90
12039;DHT22;6080;48.818;9.526;2023-05-16T05:01:19;11.10;99.90
12039;DHT22;6080;48.818;9.526;2023-05-16T05:03:44;11.20;99.90
12039;DHT22;6080;48.818;9.526;2023-05-16T05:06:10;11.20;99.90
12039;DHT22;6080;48.818;9.526;2023-05-16T05:08:36;11.20;99.90
12039;DHT22;6080;48.818;9.526;2023-05-16T05:11:02;11.20;99.90
12039;DHT22;6080;48.818;9.526;2023-05-16T05:13:28;11.10;99.90
12039;DHT22;6080;48.818;9.526;2023-05-16T05:15:54;11.10;99.90
12039;DHT22;6080;48.818;9.526;2023-05-16T05:18:19;11.10;99.90
12039;DHT22;6080;48.818;9.526;2023-05-16T05:20:45;11.20;99.90
12039;DHT22;6080;48.818;9.526;2023-05-16T05:23:11;11.40;99.90
12039;DHT22;6080;48.818;9.526;2023-05-16T05:25:37;11.60;99.90
12039;DHT22;6080;48.818;9.526;2023-05-16T05:28:03;11.80;99.90
12039;DHT22;6080;48.818;9.526;2023-05-16T05:30:29;11.90;99.90
12039;DHT22;6080;48.818;9.526;2023-05-16T05:32:54;12.00;99.90
12039;DHT22;6080;48.818;9.526;2023-05-16T05:35:20;12.10;99.90
12039;DHT22;6080;48.818;9.526;2023-05-16T05:37:46;12.30;99.90
12039;DHT22;6080;48.818;9.526;2023-05-16T05:40:12;12.40;99.90
12039;DHT22;6080;48.818;9.526;2023-05-16T05:42:38;12.40;99.90
12039;DHT22;6080;48.818;9.526;2023-05-16T05:45:04;12.60;99.90
12039;DHT22;6080;48.818;9.526;2023-05-16T05:47:30;12.70;99.90
12039;DHT22;6080;48.818;9.526;2023-05-16T05:49:57;12.80;99.90
12039;DHT22;6080;48.818;9.526;2023-05-16T05:52:23;12.90;99.90
12039;DHT22;6080;48.818;9.526;2023-05-16T05:54:49;13.10;99.90
12039;DHT22;6080;48.818;9.526;2023-05-16T05:57:15;13.20;99.90
12039;DHT22;6080;48.818;9.526;2023-05-16T05:59:41;13.10;99.90
12039;DHT22;6080;48.818;9.526;2023-05-16T06:02:07;13.20;99.90
12039;DHT22;6080;48.818;9.526;2023-05-16T06:04:32;13.30;99.90
12039;DHT22;6080;48.818;9.526;2023-05-16T06:06:58;13.40;99.90
12039;DHT22;6080;48.818;9.526;2023-05-16T06:09:24;13.40;99.90
12039;DHT22;6080;48.818;9.526;2023-05-16T06:11:50;13.40;99.90
12039;DHT22;6080;48.818;9.526;2023-05-16T06:14:16;13.50;99.90
12039;DHT22;6080;48.818;9.526;2023-05-16T06:16:41;13.50;99.90
12039;DHT22;6080;48.818;9.526;2023-05-16T06:19:08;13.40;99.90
12039;DHT22;6080;48.818;9.526;2023-05-16T06:21:34;13.50;99.90
12039;DHT22;6080;48.818;9.526;2023-05-16T06:24:00;13.50;99.90
12039;DHT22;6080;48.818;9.526;2023-05-16T06:26:25;13.60;99.90
12039;DHT22;6080;48.818;9.526;2023-05-16T06:28:51;13.50;99.90
12039;DHT22;6080;48.818;9.526;2023-05-16T06:31:17;13.50;99.90
12039;DHT22;6080;48.818;9.526;2023-05-16T06:33:43;13.40;99.90
12039;DHT22;6080;48.818;9.526;2023-05-16T06:36:09;13.50;99.90
12039;DHT22;6080;48.818;9.526;2023-05-16T06:38:35;13.60;99.90
12039;DHT22;6080;48.818;9.526;2023-05-16T06:41:00;13.60;99.90
12039;DHT22;6080;48.818;9.526;2023-05-16T06:43:26;13.70;99.90
12039;DHT22;6080;48.818;9.526;2023-05-16T06:45:52;13.80;99.90
12039;DHT22;6080;48.818;9.526;2023-05-16T06:48:18;13.90;99.90
12039;DHT22;6080;48.818;9.526;2023-05-16T06:50:49;13.80;99.90
12039;DHT22;6080;48.818;9.526;2023-05-16T06:53:18;13.70;99.90
12039;DHT22;6080;48.818;9.526;2023-05-16T06:55:44;13.60;99.90
12039;DHT22;6080;48.818;9.526;2023-05-16T06:58:10;13.60;99.90
12039;DHT22;6080;48.818;9.526;2023-05-16T07:00:36;13.60;99.90
12039;DHT22;6080;48.818;9.526;2023-05-16T07:03:02;13.60;99.90
12039;DHT22;6080;48.818;9.526;2023-05-16T07:05:28;13.70;99.90
12039;DHT22;6080;48.818;9.526;2023-05-16T07:07:54;13.80;99.90
12039;DHT22;6080;48.818;9.526;2023-05-16T07:10:21;14.00;99.90
12039;DHT22;6080;48.818;9.526;2023-05-16T07:12:47;14.20;99.90
12039;DHT22;6080;48.818;9.526;2023-05-16T07:15:13;14.20;99.90
12039;DHT22;6080;48.818;9.526;2023-05-16T07:17:39;14.50;99.90
12039;DHT22;6080;48.818;9.526;2023-05-16T07:20:06;14.60;99.90
12039;DHT22;6080;48.818;9.526;2023-05-16T07:22:32;14.70;99.90
12039;DHT22;6080;48.818;9.526;2023-05-16T07:24:58;14.80;99.90
12039;DHT22;6080;48.818;9.526;2023-05-16T07:27:27;14.80;99.90
12039;DHT22;6080;48.818;9.526;2023-05-16T07:29:53;14.70;99.90
12039;DHT22;6080;48.818;9.526;2023-05-16T07:32:19;14.70;99.90
12039;DHT22;6080;48.818;9.526;2023-05-16T07:34:45;14.80;99.90
12039;DHT22;6080;48.818;9.526;2023-05-16T07:37:11;14.80;99.90
12039;DHT22;6080;48.818;9.526;2023-05-16T07:39:38;14.90;99.90
12039;DHT22;6080;48.818;9.526;2023-05-16T07:42:08;14.90;99.90
12039;DHT22;6080;48.818;9.526;2023-05-16T07:44:34;14.90;99.90
12039;DHT22;6080;48.818;9.526;2023-05-16T07:47:00;14.70;99.90
12039;DHT22;6080;48.818;9.526;2023-05-16T07:49:26;14.50;99.90
12039;DHT22;6080;48.818;9.526;2023-05-16T07:51:52;14.50;99.90
12039;DHT22;6080;48.818;9.526;2023-05-16T07:54:18;14.40;99.90
12039;DHT22;6080;48.818;9.526;2023-05-16T07:56:43;14.40;99.90
12039;DHT22;6080;48.818;9.526;2023-05-16T07:59:09;14.40;99.90
12039;DHT22;6080;48.818;9.526;2023-05-16T08:01:36;14.40;99.90
12039;DHT22;6080;48.818;9.526;2023-05-16T08:04:02;14.40;99.90
12039;DHT22;6080;48.818;9.526;2023-05-16T08:06:27;14.40;99.90
12039;DHT22;6080;48.818;9.526;2023-05-16T08:08:54;14.30;99.90
12039;DHT22;6080;48.818;9.526;2023-05-16T08:11:20;14.30;99.90
12039;DHT22;6080;48.818;9.526;2023-05-16T08:13:48;14.20;99.90
12039;DHT22;6080;48.818;9.526;2023-05-16T08:16:14;14.10;99.90
12039;DHT22;6080;48.818;9.526;2023-05-16T08:18:39;14.10;99.90
12039;DHT22;6080;48.818;9.526;2023-05-16T08:21:07;14.10;99.90
12039;DHT22;6080;48.818;9.526;2023-05-16T08:23:34;14.10;99.90
12039;DHT22;6080;48.818;9.526;2023-05-16T08:26:01;14.10;99.90
12039;DHT22;6080;48.818;9.526;2023-05-16T08:28:28;14.10;99.90
12039;DHT22;6080;48.818;9.526;2023-05-16T08:30:54;14.00;99.90
12039;DHT22;6080;48.818;9.526;2023-05-16T08:33:20;14.00;99.90
12039;DHT22;6080;48.818;9.526;2023-05-16T08:35:45;14.00;99.90
12039;DHT22;6080;48.818;9.526;2023-05-16T08:38:13;13.90;99.90
12039;DHT22;6080;48.818;9.526;2023-05-16T08:40:39;13.80;99.90
12039;DHT22;6080;48.818;9.526;2023-05-16T08:43:05;13.80;99.90
12039;DHT22;6080;48.818;9.526;2023-05-16T08:45:31;13.70;99.90
12039;DHT22;6080;48.818;9.526;2023-05-16T08:48:00;13.70;99.90
12039;DHT22;6080;48.818;9.526;2023-05-16T08:50:30;13.80;99.90
12039;DHT22;6080;48.818;9.526;2023-05-16T08:52:56;13.70;99.90
12039;DHT22;6080;48.818;9.526;2023-05-16T08:55:23;13.80;99.90
12039;DHT22;6080;48.818;9.526;2023-05-16T08:57:52;13.80;99.90
12039;DHT22;6080;48.818;9.526;2023-05-16T09:00:19;13.80;99.90
12039;DHT22;6080;48.818;9.526;2023-05-16T09:02:46;13.80;99.90
12039;DHT22;6080;48.818;9.526;2023-05-16T09:05:13;13.90;99.90
12039;DHT22;6080;48.818;9.526;2023-05-16T09:07:40;13.90;99.90
12039;DHT22;6080;48.818;9.526;2023-05-16T09:10:06;14.00;99.90
12039;DHT22;6080;48.818;9.526;2023-05-16T09:12:35;14.10;99.90
12039;DHT22;6080;48.818;9.526;2023-05-16T09:15:06;14.10;99.90
12039;DHT22;6080;48.818;9.526;2023-05-16T09:17:41;14.30;99.90
12039;DHT22;6080;48.818;9.526;2023-05-16T09:20:19;14.30;99.90
12039;DHT22;6080;48.818;9.526;2023-05-16T09:22:54;14.40;99.90
12039;DHT22;6080;48.818;9.526;2023-05-16T09:25:21;14.40;99.90
12039;DHT22;6080;48.818;9.526;2023-05-16T09:27:49;14.60;99.90
12039;DHT22;6080;48.818;9.526;2023-05-16T09:30:26;14.80;99.90
12039;DHT22;6080;48.818;9.526;2023-05-16T09:32:53;14.90;99.90
12039;DHT22;6080;48.818;9.526;2023-05-16T09:35:19;14.90;99.90
12039;DHT22;6080;48.818;9.526;2023-05-16T09:37:46;14.90;99.90
12039;DHT22;6080;48.818;9.526;2023-05-16T09:40:14;14.90;99.90
12039;DHT22;6080;48.818;9.526;2023-05-16T09:42:41;14.90;99.90
12039;DHT22;6080;48.818;9.526;2023-05-16T09:45:12;14.70;99.90
12039;DHT22;6080;48.818;9.526;2023-05-16T09:47:39;14.50;99.90
12039;DHT22;6080;48.818;9.526;2023-05-16T09:50:13;14.50;99.90
12039;DHT22;6080;48.818;9.526;2023-05-16T09:52:41;14.60;99.90
12039;DHT22;6080;48.818;9.526;2023-05-16T09:55:08;14.70;99.90
12039;DHT22;6080;48.818;9.526;2023-05-16T09:57:38;14.80;99.90
12039;DHT22;6080;48.818;9.526;2023-05-16T10:00:10;14.90;99.90
12039;DHT22;6080;48.818;9.526;2023-05-16T10:02:37;14.80;99.90
12039;DHT22;6080;48.818;9.526;2023-05-16T10:05:05;14.70;99.90
12039;DHT22;6080;48.818;9.526;2023-05-16T10:07:31;14.60;99.90
12039;DHT22;6080;48.818;9.526;2023-05-16T10:10:05;14.60;99.90
12039;DHT22;6080;48.818;9.526;2023-05-16T10:12:32;14.70;99.90
12039;DHT22;6080;48.818;9.526;2023-05-16T10:15:03;14.60;99.90
12039;DHT22;6080;48.818;9.526;2023-05-16T10:17:33;14.50;99.90
12039;DHT22;6080;48.818;9.526;2023-05-16T10:20:06;14.50;99.90
12039;DHT22;6080;48.818;9.526;2023-05-16T10:22:34;14.70;99.90
12039;DHT22;6080;48.818;9.526;2023-05-16T10:25:07;14.90;99.90
12039;DHT22;6080;48.818;9.526;2023-05-16T10:27:34;15.10;99.90
12039;DHT22;6080;48.818;9.526;2023-05-16T10:30:01;15.30;99.90
12039;DHT22;6080;48.818;9.526;2023-05-16T10:32:27;15.50;99.90
12039;DHT22;6080;48.818;9.526;2023-05-16T10:34:54;15.70;99.90
12039;DHT22;6080;48.818;9.526;2023-05-16T10:37:23;16.10;99.90
12039;DHT22;6080;48.818;9.526;2023-05-16T10:39:50;16.30;99.90
12039;DHT22;6080;48.818;9.526;2023-05-16T10:42:16;16.50;99.90
12039;DHT22;6080;48.818;9.526;2023-05-16T10:44:42;16.30;99.90
12039;DHT22;6080;48.818;9.526;2023-05-16T10:47:08;16.10;99.90
12039;DHT22;6080;48.818;9.526;2023-05-16T10:49:34;16.20;99.90
12039;DHT22;6080;48.818;9.526;2023-05-16T10:52:08;16.20;99.90
12039;DHT22;6080;48.818;9.526;2023-05-16T10:54:36;16.20;99.90
12039;DHT22;6080;48.818;9.526;2023-05-16T10:57:06;16.10;99.90
12039;DHT22;6080;48.818;9.526;2023-05-16T10:59:59;15.90;99.90
12039;DHT22;6080;48.818;9.526;2023-05-16T11:02:31;15.70;99.90
12039;DHT22;6080;48.818;9.526;2023-05-16T11:05:01;15.40;99.90
12039;DHT22;6080;48.818;9.526;2023-05-16T11:07:32;15.20;99.90
12039;DHT22;6080;48.818;9.526;2023-05-16T11:12:47;15.10;99.90
12039;DHT22;6080;48.818;9.526;2023-05-16T11:17:44;15.30;99.90
12039;DHT22;6080;48.818;9.526;2023-05-16T11:20:24;15.30;99.90
12039;DHT22;6080;48.818;9.526;2023-05-16T11:25:42;15.10;99.90
12039;DHT22;6080;48.818;9.526;2023-05-16T11:28:11;15.00;99.90
12039;DHT22;6080;48.818;9.526;2023-05-16T11:30:53;14.80;99.90
12039;DHT22;6080;48.818;9.526;2023-05-16T11:33:21;14.70;99.90
12039;DHT22;6080;48.818;9.526;2023-05-16T11:36:07;14.50;99.90
12039;DHT22;6080;48.818;9.526;2023-05-16T11:38:33;14.40;99.90
12039;DHT22;6080;48.818;9.526;2023-05-16T11:41:07;14.50;99.90
12039;DHT22;6080;48.818;9.526;2023-05-16T11:43:44;14.50;99.90
12039;DHT22;6080;48.818;9.526;2023-05-16T11:46:14;14.50;99.90
12039;DHT22;6080;48.818;9.526;2023-05-16T11:48:41;14.40;99.90
12039;DHT22;6080;48.818;9.526;2023-05-16T11:51:08;14.40;99.90
12039;DHT22;6080;48.818;9.526;2023-05-16T11:53:35;14.40;99.90
12039;DHT22;6080;48.818;9.526;2023-05-16T11:56:02;14.30;99.90
12039;DHT22;6080;48.818;9.526;2023-05-16T11:58:28;14.20;99.90
12039;DHT22;6080;48.818;9.526;2023-05-16T12:00:54;14.20;99.90
12039;DHT22;6080;48.818;9.526;2023-05-16T12:03:20;14.30;99.90
12039;DHT22;6080;48.818;9.526;2023-05-16T12:05:54;14.40;99.90
12039;DHT22;6080;48.818;9.526;2023-05-16T12:08:22;14.30;99.90
12039;DHT22;6080;48.818;9.526;2023-05-16T12:10:50;14.30;99.90
12039;DHT22;6080;48.818;9.526;2023-05-16T12:13:17;14.30;99.90
12039;DHT22;6080;48.818;9.526;2023-05-16T12:15:43;14.20;99.90
12039;DHT22;6080;48.818;9.526;2023-05-16T12:18:10;14.20;99.90
12039;DHT22;6080;48.818;9.526;2023-05-16T12:20:36;14.10;99.90
12039;DHT22;6080;48.818;9.526;2023-05-16T12:23:02;14.10;99.90
12039;DHT22;6080;48.818;9.526;2023-05-16T12:25:30;14.00;99.90
12039;DHT22;6080;48.818;9.526;2023-05-16T12:28:01;13.80;99.90
12039;DHT22;6080;48.818;9.526;2023-05-16T12:30:29;13.60;99.90
12039;DHT22;6080;48.818;9.526;2023-05-16T12:32:58;13.60;99.90
12039;DHT22;6080;48.818;9.526;2023-05-16T12:35:29;13.60;99.90
12039;DHT22;6080;48.818;9.526;2023-05-16T12:37:55;13.60;99.90
12039;DHT22;6080;48.818;9.526;2023-05-16T12:40:22;13.50;99.90
12039;DHT22;6080;48.818;9.526;2023-05-16T12:42:52;13.50;99.90
12039;DHT22;6080;48.818;9.526;2023-05-16T12:45:18;13.50;99.90
12039;DHT22;6080;48.818;9.526;2023-05-16T12:47:45;13.60;99.90
12039;DHT22;6080;48.818;9.526;2023-05-16T12:50:12;13.60;99.90
12039;DHT22;6080;48.818;9.526;2023-05-16T12:52:53;13.60;99.90
12039;DHT22;6080;48.818;9.526;2023-05-16T12:55:20;13.60;99.90
12039;DHT22;6080;48.818;9.526;2023-05-16T12:57:47;13.70;99.90
12039;DHT22;6080;48.818;9.526;2023-05-16T13:00:14;13.60;99.90
12039;DHT22;6080;48.818;9.526;2023-05-16T13:02:41;13.70;99.90
12039;DHT22;6080;48.818;9.526;2023-05-16T13:05:07;13.70;99.90
12039;DHT22;6080;48.818;9.526;2023-05-16T13:07:33;13.70;99.90
12039;DHT22;6080;48.818;9.526;2023-05-16T13:10:00;13.80;99.90
12039;DHT22;6080;48.818;9.526;2023-05-16T13:12:26;13.80;99.90
12039;DHT22;6080;48.818;9.526;2023-05-16T13:14:52;13.80;99.90
12039;DHT22;6080;48.818;9.526;2023-05-16T13:17:18;13.90;99.90
12039;DHT22;6080;48.818;9.526;2023-05-16T13:19:44;14.00;99.90
12039;DHT22;6080;48.818;9.526;2023-05-16T13:22:10;14.00;99.90
12039;DHT22;6080;48.818;9.526;2023-05-16T13:24:36;14.10;99.90
12039;DHT22;6080;48.818;9.526;2023-05-16T13:27:02;14.10;99.90
12039;DHT22;6080;48.818;9.526;2023-05-16T13:29:28;14.20;99.90
12039;DHT22;6080;48.818;9.526;2023-05-16T13:31:53;14.20;99.90
12039;DHT22;6080;48.818;9.526;2023-05-16T13:34:19;14.10;99.90
12039;DHT22;6080;48.818;9.526;2023-05-16T13:36:45;14.10;99.90
12039;DHT22;6080;48.818;9.526;2023-05-16T13:39:12;14.20;99.90
12039;DHT22;6080;48.818;9.526;2023-05-16T13:41:38;14.30;99.90
12039;DHT22;6080;48.818;9.526;2023-05-16T13:44:05;14.30;99.90
12039;DHT22;6080;48.818;9.526;2023-05-16T13:46:31;14.30;99.90
12039;DHT22;6080;48.818;9.526;2023-05-16T13:48:57;14.30;99.90
12039;DHT22;6080;48.818;9.526;2023-05-16T13:51:22;14.40;99.90
12039;DHT22;6080;48.818;9.526;2023-05-16T13:53:48;14.50;99.90
12039;DHT22;6080;48.818;9.526;2023-05-16T13:56:15;14.50;99.90
12039;DHT22;6080;48.818;9.526;2023-05-16T13:58:40;14.20;99.90
12039;DHT22;6080;48.818;9.526;2023-05-16T14:01:06;14.00;99.90
12039;DHT22;6080;48.818;9.526;2023-05-16T14:03:32;13.70;99.90
12039;DHT22;6080;48.818;9.526;2023-05-16T14:06:01;13.60;99.90
12039;DHT22;6080;48.818;9.526;2023-05-16T14:08:26;13.60;99.90
12039;DHT22;6080;48.818;9.526;2023-05-16T14:10:52;13.60;99.90
12039;DHT22;6080;48.818;9.526;2023-05-16T14:13:18;13.90;99.90
12039;DHT22;6080;48.818;9.526;2023-05-16T14:15:44;14.00;99.90
12039;DHT22;6080;48.818;9.526;2023-05-16T14:18:10;14.00;99.90
12039;DHT22;6080;48.818;9.526;2023-05-16T14:20:36;14.10;99.90
12039;DHT22;6080;48.818;9.526;2023-05-16T14:23:01;14.10;99.90
12039;DHT22;6080;48.818;9.526;2023-05-16T14:25:28;14.10;99.90
12039;DHT22;6080;48.818;9.526;2023-05-16T14:27:54;14.00;99.90
12039;DHT22;6080;48.818;9.526;2023-05-16T14:30:20;14.00;99.90
12039;DHT22;6080;48.818;9.526;2023-05-16T14:32:46;13.80;99.90
12039;DHT22;6080;48.818;9.526;2023-05-16T14:35:11;13.70;99.90
12039;DHT22;6080;48.818;9.526;2023-05-16T14:37:37;13.80;99.90
12039;DHT22;6080;48.818;9.526;2023-05-16T14:40:03;13.90;99.90
12039;DHT22;6080;48.818;9.526;2023-05-16T14:42:30;14.00;99.90
12039;DHT22;6080;48.818;9.526;2023-05-16T14:44:56;14.10;99.90
12039;DHT22;6080;48.818;9.526;2023-05-16T14:47:22;14.20;99.90
12039;DHT22;6080;48.818;9.526;2023-05-16T14:49:48;14.30;99.90
12039;DHT22;6080;48.818;9.526;2023-05-16T14:52:14;14.50;99.90
12039;DHT22;6080;48.818;9.526;2023-05-16T14:54:40;14.60;99.90
12039;DHT22;6080;48.818;9.526;2023-05-16T14:57:06;14.80;99.90
12039;DHT22;6080;48.818;9.526;2023-05-16T14:59:32;14.90;99.90
12039;DHT22;6080;48.818;9.526;2023-05-16T15:01:58;14.90;99.90
12039;DHT22;6080;48.818;9.526;2023-05-16T15:04:26;15.00;99.90
12039;DHT22;6080;48.818;9.526;2023-05-16T15:06:52;15.00;99.90
12039;DHT22;6080;48.818;9.526;2023-05-16T15:09:18;14.70;99.90
12039;DHT22;6080;48.818;9.526;2023-05-16T15:11:44;14.40;99.90
12039;DHT22;6080;48.818;9.526;2023-05-16T15:14:11;14.10;99.90
12039;DHT22;6080;48.818;9.526;2023-05-16T15:16:36;13.90;99.90
12039;DHT22;6080;48.818;9.526;2023-05-16T15:19:02;13.80;99.90
12039;DHT22;6080;48.818;9.526;2023-05-16T15:21:28;13.80;99.90
12039;DHT22;6080;48.818;9.526;2023-05-16T15:23:55;13.80;99.90
12039;DHT22;6080;48.818;9.526;2023-05-16T15:26:21;13.70;99.90
12039;DHT22;6080;48.818;9.526;2023-05-16T15:28:47;13.80;99.90
12039;DHT22;6080;48.818;9.526;2023-05-16T15:31:13;13.80;99.90
12039;DHT22;6080;48.818;9.526;2023-05-16T15:33:38;13.90;99.90
12039;DHT22;6080;48.818;9.526;2023-05-16T15:36:05;13.90;99.90
12039;DHT22;6080;48.818;9.526;2023-05-16T15:38:30;13.90;99.90
12039;DHT22;6080;48.818;9.526;2023-05-16T15:40:56;13.80;99.90
12039;DHT22;6080;48.818;9.526;2023-05-16T15:43:22;13.80;99.90
12039;DHT22;6080;48.818;9.526;2023-05-16T15:45:48;13.80;99.90
12039;DHT22;6080;48.818;9.526;2023-05-16T15:48:14;13.80;99.90
12039;DHT22;6080;48.818;9.526;2023-05-16T15:50:40;13.80;99.90
12039;DHT22;6080;48.818;9.526;2023-05-16T15:53:06;13.70;99.90
12039;DHT22;6080;48.818;9.526;2023-05-16T15:55:32;13.60;99.90
12039;DHT22;6080;48.818;9.526;2023-05-16T15:57:58;13.50;99.90
12039;DHT22;6080;48.818;9.526;2023-05-16T16:00:24;13.50;99.90
12039;DHT22;6080;48.818;9.526;2023-05-16T16:02:50;13.50;99.90
12039;DHT22;6080;48.818;9.526;2023-05-16T16:05:16;13.50;99.90
12039;DHT22;6080;48.818;9.526;2023-05-16T16:07:42;13.40;99.90
12039;DHT22;6080;48.818;9.526;2023-05-16T16:10:08;13.50;99.90
12039;DHT22;6080;48.818;9.526;2023-05-16T16:12:34;13.40;99.90
12039;DHT22;6080;48.818;9.526;2023-05-16T16:15:02;13.40;99.90
12039;DHT22;6080;48.818;9.526;2023-05-16T16:17:31;13.40;99.90
12039;DHT22;6080;48.818;9.526;2023-05-16T16:19:57;13.40;99.90
12039;DHT22;6080;48.818;9.526;2023-05-16T16:22:22;13.50;99.90
12039;DHT22;6080;48.818;9.526;2023-05-16T16:24:48;13.50;99.90
12039;DHT22;6080;48.818;9.526;2023-05-16T16:27:14;13.60;99.90
12039;DHT22;6080;48.818;9.526;2023-05-16T16:29:41;13.60;99.90
12039;DHT22;6080;48.818;9.526;2023-05-16T16:32:06;13.60;99.90
12039;DHT22;6080;48.818;9.526;2023-05-16T16:34:32;13.60;99.90
12039;DHT22;6080;48.818;9.526;2023-05-16T16:36:58;13.50;99.90
12039;DHT22;6080;48.818;9.526;2023-05-16T16:39:24;13.40;99.90
12039;DHT22;6080;48.818;9.526;2023-05-16T16:41:50;13.40;99.90
12039;DHT22;6080;48.818;9.526;2023-05-16T16:44:18;13.40;99.90
12039;DHT22;6080;48.818;9.526;2023-05-16T16:46:44;13.40;99.90
12039;DHT22;6080;48.818;9.526;2023-05-16T16:49:10;13.40;99.90
12039;DHT22;6080;48.818;9.526;2023-05-16T16:51:35;13.40;99.90
12039;DHT22;6080;48.818;9.526;2023-05-16T16:54:01;13.50;99.90
12039;DHT22;6080;48.818;9.526;2023-05-16T16:56:27;13.50;99.90
12039;DHT22;6080;48.818;9.526;2023-05-16T16:58:54;13.40;99.90
12039;DHT22;6080;48.818;9.526;2023-05-16T17:01:20;13.50;99.90
12039;DHT22;6080;48.818;9.526;2023-05-16T17:03:46;13.40;99.90
12039;DHT22;6080;48.818;9.526;2023-05-16T17:06:12;13.50;99.90
12039;DHT22;6080;48.818;9.526;2023-05-16T17:08:38;13.40;99.90
12039;DHT22;6080;48.818;9.526;2023-05-16T17:11:03;13.50;99.90
12039;DHT22;6080;48.818;9.526;2023-05-16T17:13:30;13.50;99.90
12039;DHT22;6080;48.818;9.526;2023-05-16T17:16:02;13.50;99.90
12039;DHT22;6080;48.818;9.526;2023-05-16T17:18:28;13.60;99.90
12039;DHT22;6080;48.818;9.526;2023-05-16T17:20:54;13.50;99.90
12039;DHT22;6080;48.818;9.526;2023-05-16T17:23:20;13.50;99.90
12039;DHT22;6080;48.818;9.526;2023-05-16T17:25:46;13.50;99.90
12039;DHT22;6080;48.818;9.526;2023-05-16T17:28:12;13.50;99.90
12039;DHT22;6080;48.818;9.526;2023-05-16T17:30:38;13.50;99.90
12039;DHT22;6080;48.818;9.526;2023-05-16T17:33:04;13.50;99.90
12039;DHT22;6080;48.818;9.526;2023-05-16T17:35:31;13.50;99.90
12039;DHT22;6080;48.818;9.526;2023-05-16T17:37:56;13.50;99.90
12039;DHT22;6080;48.818;9.526;2023-05-16T17:40:23;13.50;99.90
12039;DHT22;6080;48.818;9.526;2023-05-16T17:42:49;13.50;99.90
12039;DHT22;6080;48.818;9.526;2023-05-16T17:45:17;13.50;99.90
12039;DHT22;6080;48.818;9.526;2023-05-16T17:47:42;13.50;99.90
12039;DHT22;6080;48.818;9.526;2023-05-16T17:50:08;13.50;99.90
12039;DHT22;6080;48.818;9.526;2023-05-16T17:52:35;13.40;99.90
12039;DHT22;6080;48.818;9.526;2023-05-16T17:55:02;13.40;99.90
12039;DHT22;6080;48.818;9.526;2023-05-16T17:57:29;13.40;99.90
12039;DHT22;6080;48.818;9.526;2023-05-16T17:59:54;13.40;99.90
12039;DHT22;6080;48.818;9.526;2023-05-16T18:02:20;13.40;99.90
12039;DHT22;6080;48.818;9.526;2023-05-16T18:04:46;13.40;99.90
12039;DHT22;6080;48.818;9.526;2023-05-16T18:07:13;13.30;99.90
12039;DHT22;6080;48.818;9.526;2023-05-16T18:09:38;13.40;99.90
12039;DHT22;6080;48.818;9.526;2023-05-16T18:12:05;13.30;99.90
12039;DHT22;6080;48.818;9.526;2023-05-16T18:14:31;13.20;99.90
12039;DHT22;6080;48.818;9.526;2023-05-16T18:16:57;13.10;99.90
12039;DHT22;6080;48.818;9.526;2023-05-16T18:19:23;13.00;99.90
12039;DHT22;6080;48.818;9.526;2023-05-16T18:21:49;12.90;99.90
12039;DHT22;6080;48.818;9.526;2023-05-16T18:24:14;12.80;99.90
12039;DHT22;6080;48.818;9.526;2023-05-16T18:26:41;12.70;99.90
12039;DHT22;6080;48.818;9.526;2023-05-16T18:29:08;12.70;99.90
12039;DHT22;6080;48.818;9.526;2023-05-16T18:31:37;12.60;99.90
12039;DHT22;6080;48.818;9.526;2023-05-16T18:34:05;12.60;99.90
12039;DHT22;6080;48.818;9.526;2023-05-16T18:36:31;12.50;99.90
12039;DHT22;6080;48.818;9.526;2023-05-16T18:38:57;12.40;99.90
12039;DHT22;6080;48.818;9.526;2023-05-16T18:41:23;12.40;99.90
12039;DHT22;6080;48.818;9.526;2023-05-16T18:43:49;12.20;99.90
12039;DHT22;6080;48.818;9.526;2023-05-16T18:46:14;12.10;99.90
12039;DHT22;6080;48.818;9.526;2023-05-16T18:48:40;12.00;99.90
12039;DHT22;6080;48.818;9.526;2023-05-16T18:51:06;11.90;99.90
12039;DHT22;6080;48.818;9.526;2023-05-16T18:53:31;11.80;99.90